Terminal Aerodrome Forecast
Issued by NWS

Home | Current Version | Previous Version | Text Only | Print | Product List | Glossary On
Versions: 1 2 3 4 5 6 7 8 9 10 11 12 13 14 15 16 17 18
296
FTUS43 KMPX 022338
TAFAXN
TAF
KAXN 022338Z 0300/0324 29004KT P6SM OVC012
     FM031400 17008KT P6SM BKN024 OVC035
     FM031800 15012KT P6SM BKN035=

USA.gov is the U.S. government's official web portal to all federal, state and local government web resources and services.